sensor_id;sensor_type;location;lat;lon;timestamp;temperature;humidity
38592;DHT22;24356;48.460;11.450;2022-07-03T00:00:25;15.70;83.60
38592;DHT22;24356;48.460;11.450;2022-07-03T00:02:51;15.70;83.60
38592;DHT22;24356;48.460;11.450;2022-07-03T00:05:17;15.70;83.70
38592;DHT22;24356;48.460;11.450;2022-07-03T00:07:42;15.60;83.80
38592;DHT22;24356;48.460;11.450;2022-07-03T00:10:08;15.60;83.30
38592;DHT22;24356;48.460;11.450;2022-07-03T00:12:35;15.60;83.10
38592;DHT22;24356;48.460;11.450;2022-07-03T00:15:00;15.60;83.60
38592;DHT22;24356;48.460;11.450;2022-07-03T00:17:26;15.60;83.50
38592;DHT22;24356;48.460;11.450;2022-07-03T00:19:51;15.60;83.60
38592;DHT22;24356;48.460;11.450;2022-07-03T00:22:17;15.50;83.70
38592;DHT22;24356;48.460;11.450;2022-07-03T00:24:47;15.50;83.70
38592;DHT22;24356;48.460;11.450;2022-07-03T00:27:15;15.50;83.50
38592;DHT22;24356;48.460;11.450;2022-07-03T00:29:42;15.50;83.60
38592;DHT22;24356;48.460;11.450;2022-07-03T00:32:11;15.50;83.50
38592;DHT22;24356;48.460;11.450;2022-07-03T00:34:39;15.40;83.80
38592;DHT22;24356;48.460;11.450;2022-07-03T00:37:09;15.40;83.40
38592;DHT22;24356;48.460;11.450;2022-07-03T00:39:37;15.40;83.40
38592;DHT22;24356;48.460;11.450;2022-07-03T00:42:06;15.40;83.60
38592;DHT22;24356;48.460;11.450;2022-07-03T00:44:43;15.40;83.70
38592;DHT22;24356;48.460;11.450;2022-07-03T00:47:11;15.30;83.50
38592;DHT22;24356;48.460;11.450;2022-07-03T00:49:38;15.30;83.70
38592;DHT22;24356;48.460;11.450;2022-07-03T00:52:05;15.30;83.60
38592;DHT22;24356;48.460;11.450;2022-07-03T00:54:34;15.20;83.80
38592;DHT22;24356;48.460;11.450;2022-07-03T00:57:02;15.20;83.60
38592;DHT22;24356;48.460;11.450;2022-07-03T00:59:28;15.20;83.40
38592;DHT22;24356;48.460;11.450;2022-07-03T01:02:02;15.20;83.50
38592;DHT22;24356;48.460;11.450;2022-07-03T01:07:03;15.20;83.60
38592;DHT22;24356;48.460;11.450;2022-07-03T01:20:38;15.00;83.70
38592;DHT22;24356;48.460;11.450;2022-07-03T01:23:18;15.00;83.50
38592;DHT22;24356;48.460;11.450;2022-07-03T01:25:47;15.00;83.50
38592;DHT22;24356;48.460;11.450;2022-07-03T01:28:14;15.00;83.50
38592;DHT22;24356;48.460;11.450;2022-07-03T01:30:47;14.90;83.50
38592;DHT22;24356;48.460;11.450;2022-07-03T01:33:29;14.90;83.50
38592;DHT22;24356;48.460;11.450;2022-07-03T01:38:29;14.90;83.60
38592;DHT22;24356;48.460;11.450;2022-07-03T01:40:56;14.90;83.70
38592;DHT22;24356;48.460;11.450;2022-07-03T01:43:30;14.80;83.80
38592;DHT22;24356;48.460;11.450;2022-07-03T01:45:58;14.80;83.70
38592;DHT22;24356;48.460;11.450;2022-07-03T01:48:25;14.80;83.60
38592;DHT22;24356;48.460;11.450;2022-07-03T01:50:52;14.80;83.70
38592;DHT22;24356;48.460;11.450;2022-07-03T01:53:20;14.80;83.70
38592;DHT22;24356;48.460;11.450;2022-07-03T01:55:46;14.70;83.90
38592;DHT22;24356;48.460;11.450;2022-07-03T01:58:13;14.70;83.80
38592;DHT22;24356;48.460;11.450;2022-07-03T02:00:46;14.70;83.80
38592;DHT22;24356;48.460;11.450;2022-07-03T02:03:19;14.70;83.80
38592;DHT22;24356;48.460;11.450;2022-07-03T02:05:47;14.70;83.60
38592;DHT22;24356;48.460;11.450;2022-07-03T02:13:40;14.60;83.80
38592;DHT22;24356;48.460;11.450;2022-07-03T02:16:08;14.60;83.90
38592;DHT22;24356;48.460;11.450;2022-07-03T02:18:39;14.50;83.80
38592;DHT22;24356;48.460;11.450;2022-07-03T02:21:19;14.50;83.60
38592;DHT22;24356;48.460;11.450;2022-07-03T02:26:36;14.50;83.80
38592;DHT22;24356;48.460;11.450;2022-07-03T02:29:05;14.50;83.80
38592;DHT22;24356;48.460;11.450;2022-07-03T02:31:51;14.50;83.80
38592;DHT22;24356;48.460;11.450;2022-07-03T02:34:23;14.50;83.90
38592;DHT22;24356;48.460;11.450;2022-07-03T02:36:52;14.40;83.90
38592;DHT22;24356;48.460;11.450;2022-07-03T02:39:29;14.40;83.80
38592;DHT22;24356;48.460;11.450;2022-07-03T02:41:59;14.40;83.90
38592;DHT22;24356;48.460;11.450;2022-07-03T02:44:34;14.30;84.00
38592;DHT22;24356;48.460;11.450;2022-07-03T02:47:27;14.30;84.00
38592;DHT22;24356;48.460;11.450;2022-07-03T02:50:07;14.30;83.90
38592;DHT22;24356;48.460;11.450;2022-07-03T02:52:47;14.30;83.90
38592;DHT22;24356;48.460;11.450;2022-07-03T03:00:58;14.20;84.00
38592;DHT22;24356;48.460;11.450;2022-07-03T03:03:29;14.20;84.00
38592;DHT22;24356;48.460;11.450;2022-07-03T03:06:00;14.20;84.00
38592;DHT22;24356;48.460;11.450;2022-07-03T03:11:41;14.20;84.10
38592;DHT22;24356;48.460;11.450;2022-07-03T03:14:10;14.10;84.10
38592;DHT22;24356;48.460;11.450;2022-07-03T03:16:45;14.10;84.10
38592;DHT22;24356;48.460;11.450;2022-07-03T03:19:12;14.10;84.10
38592;DHT22;24356;48.460;11.450;2022-07-03T03:22:07;14.10;84.00
38592;DHT22;24356;48.460;11.450;2022-07-03T03:24:30;14.10;84.10
38592;DHT22;24356;48.460;11.450;2022-07-03T03:26:57;14.00;84.20
38592;DHT22;24356;48.460;11.450;2022-07-03T03:29:23;14.00;84.10
38592;DHT22;24356;48.460;11.450;2022-07-03T03:31:50;14.00;84.30
38592;DHT22;24356;48.460;11.450;2022-07-03T03:34:16;14.00;84.20
38592;DHT22;24356;48.460;11.450;2022-07-03T03:36:44;14.00;84.10
38592;DHT22;24356;48.460;11.450;2022-07-03T03:39:09;14.00;84.10
38592;DHT22;24356;48.460;11.450;2022-07-03T03:41:35;14.00;84.30
38592;DHT22;24356;48.460;11.450;2022-07-03T03:44:01;13.90;84.30
38592;DHT22;24356;48.460;11.450;2022-07-03T03:46:26;13.90;84.40
38592;DHT22;24356;48.460;11.450;2022-07-03T03:48:52;13.90;84.40
38592;DHT22;24356;48.460;11.450;2022-07-03T03:51:18;13.90;84.40
38592;DHT22;24356;48.460;11.450;2022-07-03T03:53:44;13.90;84.40
38592;DHT22;24356;48.460;11.450;2022-07-03T03:56:11;13.90;84.20
38592;DHT22;24356;48.460;11.450;2022-07-03T03:58:38;13.90;84.20
38592;DHT22;24356;48.460;11.450;2022-07-03T04:01:05;13.90;84.30
38592;DHT22;24356;48.460;11.450;2022-07-03T04:03:32;13.80;84.30
38592;DHT22;24356;48.460;11.450;2022-07-03T04:05:58;13.80;84.30
38592;DHT22;24356;48.460;11.450;2022-07-03T04:08:25;13.80;84.20
38592;DHT22;24356;48.460;11.450;2022-07-03T04:10:51;13.80;84.40
38592;DHT22;24356;48.460;11.450;2022-07-03T04:13:17;13.80;84.50
38592;DHT22;24356;48.460;11.450;2022-07-03T04:15:45;13.80;84.50
38592;DHT22;24356;48.460;11.450;2022-07-03T04:18:10;13.80;84.60
38592;DHT22;24356;48.460;11.450;2022-07-03T04:20:36;13.80;84.60
38592;DHT22;24356;48.460;11.450;2022-07-03T04:23:02;13.80;84.60
38592;DHT22;24356;48.460;11.450;2022-07-03T04:25:28;13.80;84.60
38592;DHT22;24356;48.460;11.450;2022-07-03T04:27:54;13.80;84.60
38592;DHT22;24356;48.460;11.450;2022-07-03T04:30:20;13.80;84.80
38592;DHT22;24356;48.460;11.450;2022-07-03T04:32:45;13.80;84.70
38592;DHT22;24356;48.460;11.450;2022-07-03T04:35:12;13.80;84.70
38592;DHT22;24356;48.460;11.450;2022-07-03T04:37:39;13.80;84.60
38592;DHT22;24356;48.460;11.450;2022-07-03T04:40:05;13.80;84.60
38592;DHT22;24356;48.460;11.450;2022-07-03T04:42:32;13.80;84.80
38592;DHT22;24356;48.460;11.450;2022-07-03T04:44:57;13.80;84.90
38592;DHT22;24356;48.460;11.450;2022-07-03T04:47:23;13.80;84.70
38592;DHT22;24356;48.460;11.450;2022-07-03T04:49:50;13.80;84.80
38592;DHT22;24356;48.460;11.450;2022-07-03T04:52:16;13.80;84.80
38592;DHT22;24356;48.460;11.450;2022-07-03T04:54:43;13.90;84.60
38592;DHT22;24356;48.460;11.450;2022-07-03T04:57:08;13.90;84.70
38592;DHT22;24356;48.460;11.450;2022-07-03T04:59:34;13.90;84.70
38592;DHT22;24356;48.460;11.450;2022-07-03T05:02:00;13.90;84.70
38592;DHT22;24356;48.460;11.450;2022-07-03T05:04:26;13.90;84.70
38592;DHT22;24356;48.460;11.450;2022-07-03T05:06:52;13.90;84.80
38592;DHT22;24356;48.460;11.450;2022-07-03T05:09:18;13.90;84.80
38592;DHT22;24356;48.460;11.450;2022-07-03T05:11:44;13.90;84.80
38592;DHT22;24356;48.460;11.450;2022-07-03T05:14:10;14.00;84.70
38592;DHT22;24356;48.460;11.450;2022-07-03T05:16:36;14.00;84.50
38592;DHT22;24356;48.460;11.450;2022-07-03T05:19:01;14.00;84.70
38592;DHT22;24356;48.460;11.450;2022-07-03T05:21:27;14.00;84.70
38592;DHT22;24356;48.460;11.450;2022-07-03T05:23:53;14.00;84.70
38592;DHT22;24356;48.460;11.450;2022-07-03T05:26:18;14.10;84.60
38592;DHT22;24356;48.460;11.450;2022-07-03T05:28:44;14.10;84.80
38592;DHT22;24356;48.460;11.450;2022-07-03T05:31:10;14.10;84.60
38592;DHT22;24356;48.460;11.450;2022-07-03T05:33:36;14.10;84.70
38592;DHT22;24356;48.460;11.450;2022-07-03T05:36:03;14.10;85.00
38592;DHT22;24356;48.460;11.450;2022-07-03T05:38:29;14.20;85.00
38592;DHT22;24356;48.460;11.450;2022-07-03T05:41:13;14.20;85.50
38592;DHT22;24356;48.460;11.450;2022-07-03T05:43:40;14.20;86.40
38592;DHT22;24356;48.460;11.450;2022-07-03T05:46:06;14.30;86.80
38592;DHT22;24356;48.460;11.450;2022-07-03T05:48:31;14.30;87.30
38592;DHT22;24356;48.460;11.450;2022-07-03T05:50:57;14.40;88.30
38592;DHT22;24356;48.460;11.450;2022-07-03T05:53:23;14.50;88.40
38592;DHT22;24356;48.460;11.450;2022-07-03T05:55:49;14.50;88.10
38592;DHT22;24356;48.460;11.450;2022-07-03T05:58:15;14.70;87.80
38592;DHT22;24356;48.460;11.450;2022-07-03T06:00:41;14.70;87.60
38592;DHT22;24356;48.460;11.450;2022-07-03T06:03:07;14.80;86.80
38592;DHT22;24356;48.460;11.450;2022-07-03T06:05:33;14.90;86.80
38592;DHT22;24356;48.460;11.450;2022-07-03T06:08:01;15.00;86.50
38592;DHT22;24356;48.460;11.450;2022-07-03T06:10:28;15.10;85.90
38592;DHT22;24356;48.460;11.450;2022-07-03T06:12:54;15.20;86.30
38592;DHT22;24356;48.460;11.450;2022-07-03T06:15:20;15.30;85.80
38592;DHT22;24356;48.460;11.450;2022-07-03T06:17:45;15.40;85.20
38592;DHT22;24356;48.460;11.450;2022-07-03T06:20:11;15.60;85.00
38592;DHT22;24356;48.460;11.450;2022-07-03T06:22:37;15.60;84.60
38592;DHT22;24356;48.460;11.450;2022-07-03T06:25:04;15.70;84.90
38592;DHT22;24356;48.460;11.450;2022-07-03T06:27:30;15.90;84.70
38592;DHT22;24356;48.460;11.450;2022-07-03T06:29:55;16.00;84.90
38592;DHT22;24356;48.460;11.450;2022-07-03T06:32:21;16.10;85.10
38592;DHT22;24356;48.460;11.450;2022-07-03T06:34:47;16.20;84.80
38592;DHT22;24356;48.460;11.450;2022-07-03T06:37:13;16.30;84.70
38592;DHT22;24356;48.460;11.450;2022-07-03T06:39:39;16.40;84.40
38592;DHT22;24356;48.460;11.450;2022-07-03T06:42:05;16.50;84.30
38592;DHT22;24356;48.460;11.450;2022-07-03T06:44:31;16.60;84.10
38592;DHT22;24356;48.460;11.450;2022-07-03T06:46:57;16.70;84.10
38592;DHT22;24356;48.460;11.450;2022-07-03T06:49:23;16.80;84.10
38592;DHT22;24356;48.460;11.450;2022-07-03T06:51:49;16.90;83.90
38592;DHT22;24356;48.460;11.450;2022-07-03T06:54:15;17.00;83.60
38592;DHT22;24356;48.460;11.450;2022-07-03T06:56:41;17.10;83.40
38592;DHT22;24356;48.460;11.450;2022-07-03T06:59:09;17.20;83.30
38592;DHT22;24356;48.460;11.450;2022-07-03T07:01:35;17.30;83.20
38592;DHT22;24356;48.460;11.450;2022-07-03T07:04:00;17.40;82.90
38592;DHT22;24356;48.460;11.450;2022-07-03T07:06:28;17.50;83.40
38592;DHT22;24356;48.460;11.450;2022-07-03T07:08:54;17.60;83.10
38592;DHT22;24356;48.460;11.450;2022-07-03T07:11:20;17.70;83.10
38592;DHT22;24356;48.460;11.450;2022-07-03T07:13:46;17.80;83.00
38592;DHT22;24356;48.460;11.450;2022-07-03T07:16:11;17.90;82.80
38592;DHT22;24356;48.460;11.450;2022-07-03T07:18:40;18.10;83.50
38592;DHT22;24356;48.460;11.450;2022-07-03T07:21:05;18.20;83.10
38592;DHT22;24356;48.460;11.450;2022-07-03T07:23:31;18.30;83.40
38592;DHT22;24356;48.460;11.450;2022-07-03T07:25:57;18.40;83.30
38592;DHT22;24356;48.460;11.450;2022-07-03T07:28:22;18.50;83.40
38592;DHT22;24356;48.460;11.450;2022-07-03T07:30:48;18.70;83.70
38592;DHT22;24356;48.460;11.450;2022-07-03T07:33:13;18.80;83.50
38592;DHT22;24356;48.460;11.450;2022-07-03T07:35:39;19.00;84.20
38592;DHT22;24356;48.460;11.450;2022-07-03T07:38:04;19.10;83.40
38592;DHT22;24356;48.460;11.450;2022-07-03T07:40:30;19.30;84.20
38592;DHT22;24356;48.460;11.450;2022-07-03T07:42:56;19.50;84.10
38592;DHT22;24356;48.460;11.450;2022-07-03T07:45:22;19.70;84.40
38592;DHT22;24356;48.460;11.450;2022-07-03T07:47:48;19.80;84.00
38592;DHT22;24356;48.460;11.450;2022-07-03T07:50:14;20.00;83.90
38592;DHT22;24356;48.460;11.450;2022-07-03T07:52:41;20.20;83.60
38592;DHT22;24356;48.460;11.450;2022-07-03T07:55:07;20.40;83.50
38592;DHT22;24356;48.460;11.450;2022-07-03T07:57:36;20.60;83.00
38592;DHT22;24356;48.460;11.450;2022-07-03T08:00:07;20.80;83.00
38592;DHT22;24356;48.460;11.450;2022-07-03T08:02:32;20.90;82.80
38592;DHT22;24356;48.460;11.450;2022-07-03T08:05:17;21.00;82.20
38592;DHT22;24356;48.460;11.450;2022-07-03T08:10:45;21.40;82.30
38592;DHT22;24356;48.460;11.450;2022-07-03T08:13:12;21.50;82.10
38592;DHT22;24356;48.460;11.450;2022-07-03T08:15:39;21.60;82.10
38592;DHT22;24356;48.460;11.450;2022-07-03T08:18:05;21.80;81.90
38592;DHT22;24356;48.460;11.450;2022-07-03T08:20:31;22.00;80.90
38592;DHT22;24356;48.460;11.450;2022-07-03T08:22:57;22.10;81.40
38592;DHT22;24356;48.460;11.450;2022-07-03T08:25:25;22.30;81.00
38592;DHT22;24356;48.460;11.450;2022-07-03T08:27:51;22.50;81.30
38592;DHT22;24356;48.460;11.450;2022-07-03T08:30:17;22.60;80.70
38592;DHT22;24356;48.460;11.450;2022-07-03T08:32:47;22.80;80.20
38592;DHT22;24356;48.460;11.450;2022-07-03T08:35:13;22.90;80.20
38592;DHT22;24356;48.460;11.450;2022-07-03T08:37:39;23.10;79.60
38592;DHT22;24356;48.460;11.450;2022-07-03T08:40:10;23.30;79.90
38592;DHT22;24356;48.460;11.450;2022-07-03T08:42:44;23.50;78.70
38592;DHT22;24356;48.460;11.450;2022-07-03T08:45:15;23.60;79.50
38592;DHT22;24356;48.460;11.450;2022-07-03T08:47:43;23.80;78.40
38592;DHT22;24356;48.460;11.450;2022-07-03T08:50:14;23.90;78.00
38592;DHT22;24356;48.460;11.450;2022-07-03T08:52:40;24.00;78.10
38592;DHT22;24356;48.460;11.450;2022-07-03T08:55:08;24.20;77.50
38592;DHT22;24356;48.460;11.450;2022-07-03T08:57:36;24.30;77.10
38592;DHT22;24356;48.460;11.450;2022-07-03T09:00:07;24.40;76.30
38592;DHT22;24356;48.460;11.450;2022-07-03T09:02:34;24.50;75.00
38592;DHT22;24356;48.460;11.450;2022-07-03T09:05:00;24.70;75.60
38592;DHT22;24356;48.460;11.450;2022-07-03T09:07:28;24.80;75.90
38592;DHT22;24356;48.460;11.450;2022-07-03T09:09:55;24.90;76.20
38592;DHT22;24356;48.460;11.450;2022-07-03T09:12:22;25.00;76.80
38592;DHT22;24356;48.460;11.450;2022-07-03T09:14:47;25.10;77.00
38592;DHT22;24356;48.460;11.450;2022-07-03T09:17:13;25.20;77.00
38592;DHT22;24356;48.460;11.450;2022-07-03T09:19:47;25.40;76.10
38592;DHT22;24356;48.460;11.450;2022-07-03T09:22:24;25.50;76.00
38592;DHT22;24356;48.460;11.450;2022-07-03T09:25:03;25.60;76.00
38592;DHT22;24356;48.460;11.450;2022-07-03T09:27:29;25.70;76.40
38592;DHT22;24356;48.460;11.450;2022-07-03T09:30:05;25.90;75.10
38592;DHT22;24356;48.460;11.450;2022-07-03T09:35:24;26.20;74.30
38592;DHT22;24356;48.460;11.450;2022-07-03T09:37:56;26.30;73.30
38592;DHT22;24356;48.460;11.450;2022-07-03T09:40:27;26.40;74.40
38592;DHT22;24356;48.460;11.450;2022-07-03T09:43:02;26.60;74.10
38592;DHT22;24356;48.460;11.450;2022-07-03T09:48:21;26.70;75.90
38592;DHT22;24356;48.460;11.450;2022-07-03T09:50:47;26.80;75.80
38592;DHT22;24356;48.460;11.450;2022-07-03T09:53:13;26.90;75.60
38592;DHT22;24356;48.460;11.450;2022-07-03T09:55:38;27.00;76.00
38592;DHT22;24356;48.460;11.450;2022-07-03T09:58:04;27.10;75.00
38592;DHT22;24356;48.460;11.450;2022-07-03T10:00:34;27.30;74.60
38592;DHT22;24356;48.460;11.450;2022-07-03T10:03:04;27.40;75.10
38592;DHT22;24356;48.460;11.450;2022-07-03T10:05:34;27.60;75.30
38592;DHT22;24356;48.460;11.450;2022-07-03T10:08:07;27.70;72.40
38592;DHT22;24356;48.460;11.450;2022-07-03T10:10:45;27.80;72.30
38592;DHT22;24356;48.460;11.450;2022-07-03T10:13:12;27.90;73.10
38592;DHT22;24356;48.460;11.450;2022-07-03T10:15:39;28.00;72.70
38592;DHT22;24356;48.460;11.450;2022-07-03T10:18:07;28.10;70.90
38592;DHT22;24356;48.460;11.450;2022-07-03T10:23:10;28.30;68.60
38592;DHT22;24356;48.460;11.450;2022-07-03T10:25:37;28.30;68.20
38592;DHT22;24356;48.460;11.450;2022-07-03T10:28:05;28.40;67.50
38592;DHT22;24356;48.460;11.450;2022-07-03T10:30:31;28.40;67.90
38592;DHT22;24356;48.460;11.450;2022-07-03T10:32:58;28.50;67.90
38592;DHT22;24356;48.460;11.450;2022-07-03T10:35:28;28.60;68.10
38592;DHT22;24356;48.460;11.450;2022-07-03T10:38:07;28.60;67.90
38592;DHT22;24356;48.460;11.450;2022-07-03T10:43:29;28.80;66.40
38592;DHT22;24356;48.460;11.450;2022-07-03T10:46:18;28.90;66.70
38592;DHT22;24356;48.460;11.450;2022-07-03T10:49:05;29.00;66.20
38592;DHT22;24356;48.460;11.450;2022-07-03T11:02:50;29.40;64.50
38592;DHT22;24356;48.460;11.450;2022-07-03T11:05:20;29.40;63.60
38592;DHT22;24356;48.460;11.450;2022-07-03T11:20:34;29.60;62.80
38592;DHT22;24356;48.460;11.450;2022-07-03T11:25:50;29.80;62.90
38592;DHT22;24356;48.460;11.450;2022-07-03T11:34:05;29.90;61.80
38592;DHT22;24356;48.460;11.450;2022-07-03T11:36:32;30.00;62.10
38592;DHT22;24356;48.460;11.450;2022-07-03T11:44:00;30.10;62.30
38592;DHT22;24356;48.460;11.450;2022-07-03T11:46:30;30.20;62.10
38592;DHT22;24356;48.460;11.450;2022-07-03T11:49:10;30.20;61.70
38592;DHT22;24356;48.460;11.450;2022-07-03T11:51:37;30.20;61.00
38592;DHT22;24356;48.460;11.450;2022-07-03T11:54:04;30.20;60.90
38592;DHT22;24356;48.460;11.450;2022-07-03T11:56:30;30.30;61.10
38592;DHT22;24356;48.460;11.450;2022-07-03T11:58:57;30.30;61.50
38592;DHT22;24356;48.460;11.450;2022-07-03T12:01:27;30.30;61.30
38592;DHT22;24356;48.460;11.450;2022-07-03T12:04:09;30.40;61.20
38592;DHT22;24356;48.460;11.450;2022-07-03T12:06:45;30.40;61.00
38592;DHT22;24356;48.460;11.450;2022-07-03T12:12:09;30.50;61.00
38592;DHT22;24356;48.460;11.450;2022-07-03T12:17:10;30.60;60.60
38592;DHT22;24356;48.460;11.450;2022-07-03T12:19:36;30.60;60.30
38592;DHT22;24356;48.460;11.450;2022-07-03T12:22:03;30.60;59.90
38592;DHT22;24356;48.460;11.450;2022-07-03T12:24:28;30.60;59.90
38592;DHT22;24356;48.460;11.450;2022-07-03T12:26:54;30.60;59.70
38592;DHT22;24356;48.460;11.450;2022-07-03T12:29:20;30.70;59.60
38592;DHT22;24356;48.460;11.450;2022-07-03T12:31:47;30.70;59.60
38592;DHT22;24356;48.460;11.450;2022-07-03T12:34:15;30.70;59.70
38592;DHT22;24356;48.460;11.450;2022-07-03T12:36:57;30.80;59.30
38592;DHT22;24356;48.460;11.450;2022-07-03T12:39:47;30.80;60.10
38592;DHT22;24356;48.460;11.450;2022-07-03T12:42:23;30.80;59.80
38592;DHT22;24356;48.460;11.450;2022-07-03T12:44:59;30.90;59.60
38592;DHT22;24356;48.460;11.450;2022-07-03T12:47:26;30.90;59.70
38592;DHT22;24356;48.460;11.450;2022-07-03T12:52:21;31.00;58.30
38592;DHT22;24356;48.460;11.450;2022-07-03T12:54:47;31.10;58.90
38592;DHT22;24356;48.460;11.450;2022-07-03T12:57:13;31.20;58.70
38592;DHT22;24356;48.460;11.450;2022-07-03T13:00:20;31.20;59.60
38592;DHT22;24356;48.460;11.450;2022-07-03T13:02:48;31.40;58.90
38592;DHT22;24356;48.460;11.450;2022-07-03T13:05:19;31.50;58.80
38592;DHT22;24356;48.460;11.450;2022-07-03T13:07:48;31.50;58.50
38592;DHT22;24356;48.460;11.450;2022-07-03T13:10:19;31.60;58.40
38592;DHT22;24356;48.460;11.450;2022-07-03T13:12:56;31.70;57.80
38592;DHT22;24356;48.460;11.450;2022-07-03T13:15:26;31.80;57.60
38592;DHT22;24356;48.460;11.450;2022-07-03T13:17:57;31.80;57.50
38592;DHT22;24356;48.460;11.450;2022-07-03T13:20:33;31.90;57.60
38592;DHT22;24356;48.460;11.450;2022-07-03T13:23:02;32.10;57.30
38592;DHT22;24356;48.460;11.450;2022-07-03T13:25:28;32.20;57.60
38592;DHT22;24356;48.460;11.450;2022-07-03T13:28:14;32.20;57.40
38592;DHT22;24356;48.460;11.450;2022-07-03T13:30:41;32.40;57.60
38592;DHT22;24356;48.460;11.450;2022-07-03T13:33:07;32.50;57.80
38592;DHT22;24356;48.460;11.450;2022-07-03T13:35:34;32.50;57.50
38592;DHT22;24356;48.460;11.450;2022-07-03T13:38:00;32.60;57.10
38592;DHT22;24356;48.460;11.450;2022-07-03T13:40:26;32.60;57.30
38592;DHT22;24356;48.460;11.450;2022-07-03T13:42:51;32.70;57.20
38592;DHT22;24356;48.460;11.450;2022-07-03T13:45:17;32.80;57.20
38592;DHT22;24356;48.460;11.450;2022-07-03T13:47:43;32.90;57.30
38592;DHT22;24356;48.460;11.450;2022-07-03T13:50:09;33.00;57.20
38592;DHT22;24356;48.460;11.450;2022-07-03T13:52:36;33.00;57.20
38592;DHT22;24356;48.460;11.450;2022-07-03T13:55:02;33.10;57.40
38592;DHT22;24356;48.460;11.450;2022-07-03T13:57:28;33.20;57.00
38592;DHT22;24356;48.460;11.450;2022-07-03T13:59:53;33.20;56.70
38592;DHT22;24356;48.460;11.450;2022-07-03T14:02:19;33.20;56.90
38592;DHT22;24356;48.460;11.450;2022-07-03T14:04:45;33.30;56.70
38592;DHT22;24356;48.460;11.450;2022-07-03T14:07:11;33.30;56.00
38592;DHT22;24356;48.460;11.450;2022-07-03T14:09:37;33.40;55.90
38592;DHT22;24356;48.460;11.450;2022-07-03T14:12:03;33.40;56.40
38592;DHT22;24356;48.460;11.450;2022-07-03T14:14:28;33.50;56.60
38592;DHT22;24356;48.460;11.450;2022-07-03T14:16:54;33.50;56.70
38592;DHT22;24356;48.460;11.450;2022-07-03T14:19:20;33.50;56.70
38592;DHT22;24356;48.460;11.450;2022-07-03T14:21:46;33.60;56.60
38592;DHT22;24356;48.460;11.450;2022-07-03T14:24:11;33.60;56.20
38592;DHT22;24356;48.460;11.450;2022-07-03T14:26:37;33.60;57.00
38592;DHT22;24356;48.460;11.450;2022-07-03T14:29:21;33.70;56.40
38592;DHT22;24356;48.460;11.450;2022-07-03T14:32:06;33.70;56.50
38592;DHT22;24356;48.460;11.450;2022-07-03T14:34:50;33.80;56.80
38592;DHT22;24356;48.460;11.450;2022-07-03T14:37:15;33.80;56.80
38592;DHT22;24356;48.460;11.450;2022-07-03T14:39:44;33.90;57.50
38592;DHT22;24356;48.460;11.450;2022-07-03T14:42:10;33.90;57.30
38592;DHT22;24356;48.460;11.450;2022-07-03T14:44:36;34.00;57.00
38592;DHT22;24356;48.460;11.450;2022-07-03T14:47:01;34.00;57.20
38592;DHT22;24356;48.460;11.450;2022-07-03T14:49:27;34.00;57.00
38592;DHT22;24356;48.460;11.450;2022-07-03T14:51:52;34.00;56.80
38592;DHT22;24356;48.460;11.450;2022-07-03T14:54:19;34.00;57.10
38592;DHT22;24356;48.460;11.450;2022-07-03T14:56:53;34.10;56.20
38592;DHT22;24356;48.460;11.450;2022-07-03T14:59:43;34.00;56.00
38592;DHT22;24356;48.460;11.450;2022-07-03T15:02:18;34.00;56.80
38592;DHT22;24356;48.460;11.450;2022-07-03T15:05:07;34.10;57.60
38592;DHT22;24356;48.460;11.450;2022-07-03T15:07:43;34.10;57.60
38592;DHT22;24356;48.460;11.450;2022-07-03T15:10:13;34.10;57.30
38592;DHT22;24356;48.460;11.450;2022-07-03T15:12:49;34.10;57.50
38592;DHT22;24356;48.460;11.450;2022-07-03T15:15:16;34.20;58.00
38592;DHT22;24356;48.460;11.450;2022-07-03T15:17:43;34.20;57.20
38592;DHT22;24356;48.460;11.450;2022-07-03T15:20:12;34.20;57.80
38592;DHT22;24356;48.460;11.450;2022-07-03T15:22:40;34.20;57.80
38592;DHT22;24356;48.460;11.450;2022-07-03T15:25:08;34.20;57.10
38592;DHT22;24356;48.460;11.450;2022-07-03T15:27:34;34.10;57.40
38592;DHT22;24356;48.460;11.450;2022-07-03T15:30:01;34.10;57.10
38592;DHT22;24356;48.460;11.450;2022-07-03T15:32:27;34.10;56.60
38592;DHT22;24356;48.460;11.450;2022-07-03T15:34:53;34.00;56.20
38592;DHT22;24356;48.460;11.450;2022-07-03T15:40:33;34.00;56.80
38592;DHT22;24356;48.460;11.450;2022-07-03T15:51:13;33.80;56.70
38592;DHT22;24356;48.460;11.450;2022-07-03T15:53:40;33.80;56.20
38592;DHT22;24356;48.460;11.450;2022-07-03T15:56:11;33.80;56.50
38592;DHT22;24356;48.460;11.450;2022-07-03T15:58:40;33.70;56.60
38592;DHT22;24356;48.460;11.450;2022-07-03T16:01:09;33.70;56.90
38592;DHT22;24356;48.460;11.450;2022-07-03T16:04:07;33.70;57.20
38592;DHT22;24356;48.460;11.450;2022-07-03T16:06:38;33.60;57.30
38592;DHT22;24356;48.460;11.450;2022-07-03T16:09:04;33.60;57.10
38592;DHT22;24356;48.460;11.450;2022-07-03T16:11:30;33.60;57.40
38592;DHT22;24356;48.460;11.450;2022-07-03T16:13:57;33.50;57.20
38592;DHT22;24356;48.460;11.450;2022-07-03T16:16:28;33.50;56.80
38592;DHT22;24356;48.460;11.450;2022-07-03T16:18:54;33.50;56.60
38592;DHT22;24356;48.460;11.450;2022-07-03T16:21:20;33.40;56.80
38592;DHT22;24356;48.460;11.450;2022-07-03T16:23:48;33.30;56.70
38592;DHT22;24356;48.460;11.450;2022-07-03T16:26:15;33.30;56.80
38592;DHT22;24356;48.460;11.450;2022-07-03T16:28:41;33.20;57.00
38592;DHT22;24356;48.460;11.450;2022-07-03T16:31:10;33.20;57.30
38592;DHT22;24356;48.460;11.450;2022-07-03T16:33:40;33.20;57.10
38592;DHT22;24356;48.460;11.450;2022-07-03T16:36:27;33.10;56.90
38592;DHT22;24356;48.460;11.450;2022-07-03T16:39:06;33.00;57.00
38592;DHT22;24356;48.460;11.450;2022-07-03T16:41:34;33.00;57.00
38592;DHT22;24356;48.460;11.450;2022-07-03T16:44:04;32.90;56.90
38592;DHT22;24356;48.460;11.450;2022-07-03T16:46:29;32.90;56.80
38592;DHT22;24356;48.460;11.450;2022-07-03T16:48:57;32.80;57.10
38592;DHT22;24356;48.460;11.450;2022-07-03T16:51:29;32.70;56.40
38592;DHT22;24356;48.460;11.450;2022-07-03T16:53:56;32.60;56.80
38592;DHT22;24356;48.460;11.450;2022-07-03T16:56:22;32.60;57.10
38592;DHT22;24356;48.460;11.450;2022-07-03T16:58:49;32.50;56.80
38592;DHT22;24356;48.460;11.450;2022-07-03T17:01:15;32.40;56.60
38592;DHT22;24356;48.460;11.450;2022-07-03T17:03:41;32.30;57.30
38592;DHT22;24356;48.460;11.450;2022-07-03T17:06:07;32.20;57.20
38592;DHT22;24356;48.460;11.450;2022-07-03T17:08:35;32.10;57.60